sensor_id;sensor_type;location;lat;lon;timestamp;P1;durP1;ratioP1;P2;durP2;ratioP2
16832;SDS011;8533;48.426;10.868;2022-11-13T00:01:23;16.60;;;8.30;;
16832;SDS011;8533;48.426;10.868;2022-11-13T00:06:15;27.30;;;9.13;;
16832;SDS011;8533;48.426;10.868;2022-11-13T00:08:44;20.00;;;8.43;;
16832;SDS011;8533;48.426;10.868;2022-11-13T00:11:13;19.70;;;7.30;;
16832;SDS011;8533;48.426;10.868;2022-11-13T00:13:46;22.53;;;8.60;;
16832;SDS011;8533;48.426;10.868;2022-11-13T00:16:15;16.60;;;7.97;;
16832;SDS011;8533;48.426;10.868;2022-11-13T00:18:44;18.80;;;8.97;;
16832;SDS011;8533;48.426;10.868;2022-11-13T00:21:17;19.27;;;9.03;;
16832;SDS011;8533;48.426;10.868;2022-11-13T00:23:46;16.60;;;8.70;;
16832;SDS011;8533;48.426;10.868;2022-11-13T00:26:15;18.23;;;9.47;;
16832;SDS011;8533;48.426;10.868;2022-11-13T00:28:44;17.97;;;8.50;;
16832;SDS011;8533;48.426;10.868;2022-11-13T00:31:13;20.40;;;8.20;;
16832;SDS011;8533;48.426;10.868;2022-11-13T00:33:41;15.80;;;8.57;;
16832;SDS011;8533;48.426;10.868;2022-11-13T00:36:24;13.27;;;7.83;;
16832;SDS011;8533;48.426;10.868;2022-11-13T00:41:15;18.60;;;9.10;;
16832;SDS011;8533;48.426;10.868;2022-11-13T00:43:42;27.60;;;8.60;;
16832;SDS011;8533;48.426;10.868;2022-11-13T00:46:10;21.20;;;9.03;;
16832;SDS011;8533;48.426;10.868;2022-11-13T00:48:38;24.73;;;8.80;;
16832;SDS011;8533;48.426;10.868;2022-11-13T00:51:05;22.30;;;9.43;;
16832;SDS011;8533;48.426;10.868;2022-11-13T00:53:33;18.90;;;8.60;;
16832;SDS011;8533;48.426;10.868;2022-11-13T00:56:01;17.73;;;8.50;;
16832;SDS011;8533;48.426;10.868;2022-11-13T00:58:28;24.23;;;8.60;;
16832;SDS011;8533;48.426;10.868;2022-11-13T01:01:01;18.73;;;9.13;;
16832;SDS011;8533;48.426;10.868;2022-11-13T01:06:12;20.40;;;9.33;;
16832;SDS011;8533;48.426;10.868;2022-11-13T01:11:09;15.60;;;8.97;;
16832;SDS011;8533;48.426;10.868;2022-11-13T01:13:39;15.17;;;8.30;;
16832;SDS011;8533;48.426;10.868;2022-11-13T01:16:07;15.87;;;8.50;;
16832;SDS011;8533;48.426;10.868;2022-11-13T01:18:37;20.57;;;8.83;;
16832;SDS011;8533;48.426;10.868;2022-11-13T01:21:10;17.40;;;8.43;;
16832;SDS011;8533;48.426;10.868;2022-11-13T01:23:36;29.63;;;9.20;;
16832;SDS011;8533;48.426;10.868;2022-11-13T01:26:05;17.77;;;9.33;;
16832;SDS011;8533;48.426;10.868;2022-11-13T01:28:35;19.37;;;9.73;;
16832;SDS011;8533;48.426;10.868;2022-11-13T01:31:06;17.97;;;8.57;;
16832;SDS011;8533;48.426;10.868;2022-11-13T01:33:35;16.17;;;8.93;;
16832;SDS011;8533;48.426;10.868;2022-11-13T01:36:04;24.30;;;10.23;;
16832;SDS011;8533;48.426;10.868;2022-11-13T01:38:35;20.53;;;8.67;;
16832;SDS011;8533;48.426;10.868;2022-11-13T01:41:03;17.13;;;9.33;;
16832;SDS011;8533;48.426;10.868;2022-11-13T01:43:33;20.03;;;8.63;;
16832;SDS011;8533;48.426;10.868;2022-11-13T01:46:14;18.97;;;9.53;;
16832;SDS011;8533;48.426;10.868;2022-11-13T01:48:41;21.50;;;10.00;;
16832;SDS011;8533;48.426;10.868;2022-11-13T01:51:08;17.93;;;8.83;;
16832;SDS011;8533;48.426;10.868;2022-11-13T01:53:40;26.70;;;9.70;;
16832;SDS011;8533;48.426;10.868;2022-11-13T01:56:11;20.77;;;9.53;;
16832;SDS011;8533;48.426;10.868;2022-11-13T01:58:40;18.97;;;10.00;;
16832;SDS011;8533;48.426;10.868;2022-11-13T02:01:10;20.27;;;10.10;;
16832;SDS011;8533;48.426;10.868;2022-11-13T02:03:37;19.53;;;10.07;;
16832;SDS011;8533;48.426;10.868;2022-11-13T02:06:05;27.70;;;9.40;;
16832;SDS011;8533;48.426;10.868;2022-11-13T02:08:33;22.23;;;10.63;;
16832;SDS011;8533;48.426;10.868;2022-11-13T02:11:00;18.57;;;9.93;;
16832;SDS011;8533;48.426;10.868;2022-11-13T02:13:28;21.80;;;9.67;;
16832;SDS011;8533;48.426;10.868;2022-11-13T02:15:55;19.13;;;9.87;;
16832;SDS011;8533;48.426;10.868;2022-11-13T02:18:23;22.30;;;9.13;;
16832;SDS011;8533;48.426;10.868;2022-11-13T02:21:12;17.63;;;9.37;;
16832;SDS011;8533;48.426;10.868;2022-11-13T02:23:59;16.83;;;8.53;;
16832;SDS011;8533;48.426;10.868;2022-11-13T02:26:26;26.20;;;10.30;;
16832;SDS011;8533;48.426;10.868;2022-11-13T02:28:56;19.47;;;10.30;;
16832;SDS011;8533;48.426;10.868;2022-11-13T02:31:24;17.27;;;9.53;;
16832;SDS011;8533;48.426;10.868;2022-11-13T02:33:51;19.67;;;9.90;;
16832;SDS011;8533;48.426;10.868;2022-11-13T02:36:19;17.70;;;9.37;;
16832;SDS011;8533;48.426;10.868;2022-11-13T02:38:49;24.27;;;10.07;;
16832;SDS011;8533;48.426;10.868;2022-11-13T02:41:19;24.63;;;10.07;;
16832;SDS011;8533;48.426;10.868;2022-11-13T02:43:46;22.23;;;9.83;;
16832;SDS011;8533;48.426;10.868;2022-11-13T02:46:14;25.00;;;10.60;;
16832;SDS011;8533;48.426;10.868;2022-11-13T02:48:41;16.40;;;8.40;;
16832;SDS011;8533;48.426;10.868;2022-11-13T02:51:09;18.50;;;9.07;;
16832;SDS011;8533;48.426;10.868;2022-11-13T02:53:36;21.07;;;9.87;;
16832;SDS011;8533;48.426;10.868;2022-11-13T02:56:04;17.13;;;8.93;;
16832;SDS011;8533;48.426;10.868;2022-11-13T02:58:31;18.47;;;9.87;;
16832;SDS011;8533;48.426;10.868;2022-11-13T03:01:02;18.03;;;9.03;;
16832;SDS011;8533;48.426;10.868;2022-11-13T03:03:30;27.93;;;9.17;;
16832;SDS011;8533;48.426;10.868;2022-11-13T03:05:57;17.83;;;8.63;;
16832;SDS011;8533;48.426;10.868;2022-11-13T03:08:25;20.30;;;9.23;;
16832;SDS011;8533;48.426;10.868;2022-11-13T03:10:53;24.97;;;9.07;;
16832;SDS011;8533;48.426;10.868;2022-11-13T03:13:21;14.20;;;8.60;;
16832;SDS011;8533;48.426;10.868;2022-11-13T03:15:48;17.33;;;9.43;;
16832;SDS011;8533;48.426;10.868;2022-11-13T03:18:15;21.60;;;8.97;;
16832;SDS011;8533;48.426;10.868;2022-11-13T03:20:43;19.57;;;8.63;;
16832;SDS011;8533;48.426;10.868;2022-11-13T03:23:10;20.27;;;8.80;;
16832;SDS011;8533;48.426;10.868;2022-11-13T03:25:38;17.60;;;9.03;;
16832;SDS011;8533;48.426;10.868;2022-11-13T03:28:05;17.93;;;8.57;;
16832;SDS011;8533;48.426;10.868;2022-11-13T03:30:32;14.57;;;8.17;;
16832;SDS011;8533;48.426;10.868;2022-11-13T03:33:00;19.97;;;8.73;;
16832;SDS011;8533;48.426;10.868;2022-11-13T03:35:27;17.13;;;9.10;;
16832;SDS011;8533;48.426;10.868;2022-11-13T03:37:55;14.80;;;8.70;;
16832;SDS011;8533;48.426;10.868;2022-11-13T03:40:22;15.67;;;8.40;;
16832;SDS011;8533;48.426;10.868;2022-11-13T03:42:49;17.30;;;8.87;;
16832;SDS011;8533;48.426;10.868;2022-11-13T03:45:17;21.87;;;9.50;;
16832;SDS011;8533;48.426;10.868;2022-11-13T03:47:44;21.70;;;9.60;;
16832;SDS011;8533;48.426;10.868;2022-11-13T03:50:13;19.33;;;8.00;;
16832;SDS011;8533;48.426;10.868;2022-11-13T03:52:41;13.70;;;7.83;;
16832;SDS011;8533;48.426;10.868;2022-11-13T03:55:08;17.03;;;8.37;;
16832;SDS011;8533;48.426;10.868;2022-11-13T03:57:36;20.60;;;8.97;;
16832;SDS011;8533;48.426;10.868;2022-11-13T04:00:04;17.93;;;8.43;;
16832;SDS011;8533;48.426;10.868;2022-11-13T04:02:32;13.67;;;8.23;;
16832;SDS011;8533;48.426;10.868;2022-11-13T04:04:59;16.03;;;7.63;;
16832;SDS011;8533;48.426;10.868;2022-11-13T04:07:27;17.67;;;8.07;;
16832;SDS011;8533;48.426;10.868;2022-11-13T04:09:54;16.37;;;8.33;;
16832;SDS011;8533;48.426;10.868;2022-11-13T04:12:21;19.83;;;8.60;;
16832;SDS011;8533;48.426;10.868;2022-11-13T04:14:49;15.87;;;7.77;;
16832;SDS011;8533;48.426;10.868;2022-11-13T04:17:17;15.63;;;8.23;;
16832;SDS011;8533;48.426;10.868;2022-11-13T04:19:44;24.93;;;8.87;;
16832;SDS011;8533;48.426;10.868;2022-11-13T04:22:11;26.83;;;8.17;;
16832;SDS011;8533;48.426;10.868;2022-11-13T04:24:39;21.87;;;8.60;;
16832;SDS011;8533;48.426;10.868;2022-11-13T04:27:06;23.53;;;8.83;;
16832;SDS011;8533;48.426;10.868;2022-11-13T04:29:34;23.57;;;8.63;;
16832;SDS011;8533;48.426;10.868;2022-11-13T04:32:01;23.10;;;9.03;;
16832;SDS011;8533;48.426;10.868;2022-11-13T04:34:28;25.53;;;9.80;;
16832;SDS011;8533;48.426;10.868;2022-11-13T04:36:56;22.93;;;8.03;;
16832;SDS011;8533;48.426;10.868;2022-11-13T04:39:23;19.80;;;8.53;;
16832;SDS011;8533;48.426;10.868;2022-11-13T04:41:51;19.60;;;8.87;;
16832;SDS011;8533;48.426;10.868;2022-11-13T04:44:36;17.15;;;8.75;;
16832;SDS011;8533;48.426;10.868;2022-11-13T04:47:04;29.33;;;9.70;;
16832;SDS011;8533;48.426;10.868;2022-11-13T04:49:31;22.43;;;10.20;;
16832;SDS011;8533;48.426;10.868;2022-11-13T04:51:59;18.60;;;9.00;;
16832;SDS011;8533;48.426;10.868;2022-11-13T04:54:26;27.63;;;9.30;;
16832;SDS011;8533;48.426;10.868;2022-11-13T04:56:54;18.00;;;8.90;;
16832;SDS011;8533;48.426;10.868;2022-11-13T04:59:21;18.37;;;8.73;;
16832;SDS011;8533;48.426;10.868;2022-11-13T05:01:49;17.23;;;9.23;;
16832;SDS011;8533;48.426;10.868;2022-11-13T05:04:16;17.17;;;8.40;;
16832;SDS011;8533;48.426;10.868;2022-11-13T05:06:44;16.47;;;8.87;;
16832;SDS011;8533;48.426;10.868;2022-11-13T05:09:11;19.33;;;9.77;;
16832;SDS011;8533;48.426;10.868;2022-11-13T05:11:39;17.90;;;9.60;;
16832;SDS011;8533;48.426;10.868;2022-11-13T05:14:06;22.37;;;10.37;;
16832;SDS011;8533;48.426;10.868;2022-11-13T05:16:35;19.93;;;9.93;;
16832;SDS011;8533;48.426;10.868;2022-11-13T05:19:02;19.00;;;9.27;;
16832;SDS011;8533;48.426;10.868;2022-11-13T05:21:33;19.07;;;9.50;;
16832;SDS011;8533;48.426;10.868;2022-11-13T05:24:02;17.60;;;9.57;;
16832;SDS011;8533;48.426;10.868;2022-11-13T05:26:30;20.90;;;10.60;;
16832;SDS011;8533;48.426;10.868;2022-11-13T05:28:59;20.33;;;10.00;;
16832;SDS011;8533;48.426;10.868;2022-11-13T05:31:26;18.33;;;9.77;;
16832;SDS011;8533;48.426;10.868;2022-11-13T05:33:54;25.23;;;10.27;;
16832;SDS011;8533;48.426;10.868;2022-11-13T05:36:21;19.77;;;9.93;;
16832;SDS011;8533;48.426;10.868;2022-11-13T05:38:49;22.83;;;10.50;;
16832;SDS011;8533;48.426;10.868;2022-11-13T05:41:17;18.13;;;9.23;;
16832;SDS011;8533;48.426;10.868;2022-11-13T05:43:46;21.87;;;9.87;;
16832;SDS011;8533;48.426;10.868;2022-11-13T05:46:15;21.23;;;9.93;;
16832;SDS011;8533;48.426;10.868;2022-11-13T05:48:50;20.67;;;10.23;;
16832;SDS011;8533;48.426;10.868;2022-11-13T05:51:21;19.37;;;9.93;;
16832;SDS011;8533;48.426;10.868;2022-11-13T05:53:51;20.87;;;10.30;;
16832;SDS011;8533;48.426;10.868;2022-11-13T05:56:20;19.53;;;9.63;;
16832;SDS011;8533;48.426;10.868;2022-11-13T05:58:50;19.70;;;9.97;;
16832;SDS011;8533;48.426;10.868;2022-11-13T06:01:23;20.40;;;9.60;;
16832;SDS011;8533;48.426;10.868;2022-11-13T06:03:53;19.80;;;9.67;;
16832;SDS011;8533;48.426;10.868;2022-11-13T06:06:23;19.43;;;9.30;;
16832;SDS011;8533;48.426;10.868;2022-11-13T06:08:52;20.70;;;9.47;;
16832;SDS011;8533;48.426;10.868;2022-11-13T06:11:21;20.47;;;10.27;;
16832;SDS011;8533;48.426;10.868;2022-11-13T06:13:50;17.73;;;9.30;;
16832;SDS011;8533;48.426;10.868;2022-11-13T06:16:23;22.13;;;10.37;;
16832;SDS011;8533;48.426;10.868;2022-11-13T06:18:56;17.67;;;9.87;;
16832;SDS011;8533;48.426;10.868;2022-11-13T06:21:27;16.77;;;9.40;;
16832;SDS011;8533;48.426;10.868;2022-11-13T06:23:56;20.97;;;10.57;;
16832;SDS011;8533;48.426;10.868;2022-11-13T06:26:27;16.50;;;9.37;;
16832;SDS011;8533;48.426;10.868;2022-11-13T06:28:56;22.00;;;10.67;;
16832;SDS011;8533;48.426;10.868;2022-11-13T06:31:26;18.87;;;9.67;;
16832;SDS011;8533;48.426;10.868;2022-11-13T06:33:55;18.33;;;10.20;;
16832;SDS011;8533;48.426;10.868;2022-11-13T06:36:28;18.17;;;9.80;;
16832;SDS011;8533;48.426;10.868;2022-11-13T06:38:58;18.33;;;9.90;;
16832;SDS011;8533;48.426;10.868;2022-11-13T06:41:30;18.37;;;10.53;;
16832;SDS011;8533;48.426;10.868;2022-11-13T06:43:58;17.90;;;9.33;;
16832;SDS011;8533;48.426;10.868;2022-11-13T06:46:27;19.77;;;10.20;;
16832;SDS011;8533;48.426;10.868;2022-11-13T06:48:55;16.30;;;9.00;;
16832;SDS011;8533;48.426;10.868;2022-11-13T06:51:25;16.43;;;9.33;;
16832;SDS011;8533;48.426;10.868;2022-11-13T06:53:54;18.30;;;9.70;;
16832;SDS011;8533;48.426;10.868;2022-11-13T06:56:23;16.60;;;8.97;;
16832;SDS011;8533;48.426;10.868;2022-11-13T06:58:51;17.83;;;8.73;;
16832;SDS011;8533;48.426;10.868;2022-11-13T07:01:22;22.63;;;10.00;;
16832;SDS011;8533;48.426;10.868;2022-11-13T07:03:51;18.33;;;9.77;;
16832;SDS011;8533;48.426;10.868;2022-11-13T07:06:21;15.97;;;9.57;;
16832;SDS011;8533;48.426;10.868;2022-11-13T07:08:50;19.23;;;9.47;;
16832;SDS011;8533;48.426;10.868;2022-11-13T07:11:18;20.83;;;10.03;;
16832;SDS011;8533;48.426;10.868;2022-11-13T07:13:48;25.57;;;9.47;;
16832;SDS011;8533;48.426;10.868;2022-11-13T07:16:16;16.63;;;9.73;;
16832;SDS011;8533;48.426;10.868;2022-11-13T07:18:53;17.87;;;9.80;;
16832;SDS011;8533;48.426;10.868;2022-11-13T07:23:47;18.87;;;9.57;;
16832;SDS011;8533;48.426;10.868;2022-11-13T07:26:16;17.73;;;9.30;;
16832;SDS011;8533;48.426;10.868;2022-11-13T07:28:44;17.03;;;9.43;;
16832;SDS011;8533;48.426;10.868;2022-11-13T07:31:13;17.27;;;8.67;;
16832;SDS011;8533;48.426;10.868;2022-11-13T07:33:41;17.27;;;9.17;;
16832;SDS011;8533;48.426;10.868;2022-11-13T07:36:09;16.93;;;8.80;;
16832;SDS011;8533;48.426;10.868;2022-11-13T07:38:37;14.83;;;8.87;;
16832;SDS011;8533;48.426;10.868;2022-11-13T07:41:04;15.77;;;8.40;;
16832;SDS011;8533;48.426;10.868;2022-11-13T07:43:33;15.03;;;8.53;;
16832;SDS011;8533;48.426;10.868;2022-11-13T07:46:00;13.30;;;7.97;;
16832;SDS011;8533;48.426;10.868;2022-11-13T07:48:28;15.73;;;8.27;;
16832;SDS011;8533;48.426;10.868;2022-11-13T07:50:58;15.37;;;9.17;;
16832;SDS011;8533;48.426;10.868;2022-11-13T07:53:26;14.90;;;8.20;;
16832;SDS011;8533;48.426;10.868;2022-11-13T07:55:53;16.67;;;9.60;;
16832;SDS011;8533;48.426;10.868;2022-11-13T07:58:21;13.57;;;8.37;;
16832;SDS011;8533;48.426;10.868;2022-11-13T08:00:48;17.97;;;9.20;;
16832;SDS011;8533;48.426;10.868;2022-11-13T08:03:16;16.27;;;9.40;;
16832;SDS011;8533;48.426;10.868;2022-11-13T08:05:44;15.53;;;8.27;;
16832;SDS011;8533;48.426;10.868;2022-11-13T08:08:12;14.23;;;8.63;;
16832;SDS011;8533;48.426;10.868;2022-11-13T08:10:40;17.27;;;9.57;;
16832;SDS011;8533;48.426;10.868;2022-11-13T08:13:09;19.10;;;9.70;;
16832;SDS011;8533;48.426;10.868;2022-11-13T08:15:37;16.80;;;9.03;;
16832;SDS011;8533;48.426;10.868;2022-11-13T08:18:06;19.80;;;9.97;;
16832;SDS011;8533;48.426;10.868;2022-11-13T08:20:35;20.63;;;9.60;;
16832;SDS011;8533;48.426;10.868;2022-11-13T08:23:03;18.73;;;10.00;;
16832;SDS011;8533;48.426;10.868;2022-11-13T08:25:31;19.60;;;10.47;;
16832;SDS011;8533;48.426;10.868;2022-11-13T08:27:59;17.73;;;9.20;;
16832;SDS011;8533;48.426;10.868;2022-11-13T08:30:27;16.73;;;9.83;;
16832;SDS011;8533;48.426;10.868;2022-11-13T08:32:55;17.47;;;10.30;;
16832;SDS011;8533;48.426;10.868;2022-11-13T08:35:22;16.80;;;9.10;;
16832;SDS011;8533;48.426;10.868;2022-11-13T08:37:50;18.57;;;10.00;;
16832;SDS011;8533;48.426;10.868;2022-11-13T08:40:18;19.10;;;10.20;;
16832;SDS011;8533;48.426;10.868;2022-11-13T08:42:45;15.40;;;8.87;;
16832;SDS011;8533;48.426;10.868;2022-11-13T08:45:13;20.83;;;9.80;;
16832;SDS011;8533;48.426;10.868;2022-11-13T08:47:41;17.50;;;9.07;;
16832;SDS011;8533;48.426;10.868;2022-11-13T08:50:08;17.97;;;9.97;;
16832;SDS011;8533;48.426;10.868;2022-11-13T08:52:36;15.63;;;8.43;;
16832;SDS011;8533;48.426;10.868;2022-11-13T08:55:03;17.97;;;9.07;;
16832;SDS011;8533;48.426;10.868;2022-11-13T08:57:31;15.97;;;9.10;;
16832;SDS011;8533;48.426;10.868;2022-11-13T08:59:58;16.00;;;9.50;;
16832;SDS011;8533;48.426;10.868;2022-11-13T09:02:26;14.03;;;8.03;;
16832;SDS011;8533;48.426;10.868;2022-11-13T09:04:54;13.60;;;8.57;;
16832;SDS011;8533;48.426;10.868;2022-11-13T09:07:21;14.90;;;9.33;;
16832;SDS011;8533;48.426;10.868;2022-11-13T09:09:48;14.60;;;8.40;;
16832;SDS011;8533;48.426;10.868;2022-11-13T09:12:16;15.03;;;7.63;;
16832;SDS011;8533;48.426;10.868;2022-11-13T09:14:43;12.10;;;7.03;;
16832;SDS011;8533;48.426;10.868;2022-11-13T09:17:11;10.70;;;6.10;;
16832;SDS011;8533;48.426;10.868;2022-11-13T09:19:38;11.07;;;6.87;;
16832;SDS011;8533;48.426;10.868;2022-11-13T09:22:06;11.47;;;6.50;;
16832;SDS011;8533;48.426;10.868;2022-11-13T09:24:33;13.47;;;7.60;;
16832;SDS011;8533;48.426;10.868;2022-11-13T09:27:01;12.33;;;6.97;;
16832;SDS011;8533;48.426;10.868;2022-11-13T09:29:28;11.70;;;6.60;;
16832;SDS011;8533;48.426;10.868;2022-11-13T09:31:56;12.83;;;6.97;;
16832;SDS011;8533;48.426;10.868;2022-11-13T09:34:24;11.47;;;6.97;;
16832;SDS011;8533;48.426;10.868;2022-11-13T09:36:52;12.47;;;7.27;;
16832;SDS011;8533;48.426;10.868;2022-11-13T09:39:19;10.37;;;5.90;;
16832;SDS011;8533;48.426;10.868;2022-11-13T09:41:49;8.60;;;6.20;;
16832;SDS011;8533;48.426;10.868;2022-11-13T09:44:33;8.53;;;5.20;;
16832;SDS011;8533;48.426;10.868;2022-11-13T09:47:24;10.60;;;6.60;;
16832;SDS011;8533;48.426;10.868;2022-11-13T09:49:53;12.43;;;6.77;;
16832;SDS011;8533;48.426;10.868;2022-11-13T09:52:37;11.70;;;5.90;;
16832;SDS011;8533;48.426;10.868;2022-11-13T09:55:09;8.67;;;5.93;;
16832;SDS011;8533;48.426;10.868;2022-11-13T09:57:48;9.90;;;6.80;;
16832;SDS011;8533;48.426;10.868;2022-11-13T10:02:57;18.57;;;10.73;;
16832;SDS011;8533;48.426;10.868;2022-11-13T10:10:31;11.53;;;6.47;;
16832;SDS011;8533;48.426;10.868;2022-11-13T10:13:18;10.90;;;5.93;;
16832;SDS011;8533;48.426;10.868;2022-11-13T10:16:04;9.20;;;5.80;;
16832;SDS011;8533;48.426;10.868;2022-11-13T10:18:34;6.93;;;5.00;;
16832;SDS011;8533;48.426;10.868;2022-11-13T10:23:37;9.70;;;6.07;;
16832;SDS011;8533;48.426;10.868;2022-11-13T10:26:15;9.47;;;5.53;;
16832;SDS011;8533;48.426;10.868;2022-11-13T10:31:11;8.80;;;5.37;;
16832;SDS011;8533;48.426;10.868;2022-11-13T10:33:39;8.63;;;5.20;;
16832;SDS011;8533;48.426;10.868;2022-11-13T10:38:59;7.33;;;5.13;;
16832;SDS011;8533;48.426;10.868;2022-11-13T10:41:28;7.67;;;5.00;;
16832;SDS011;8533;48.426;10.868;2022-11-13T10:44:02;8.40;;;5.90;;
16832;SDS011;8533;48.426;10.868;2022-11-13T10:46:45;7.80;;;4.93;;
16832;SDS011;8533;48.426;10.868;2022-11-13T10:49:16;8.17;;;5.60;;
16832;SDS011;8533;48.426;10.868;2022-11-13T10:51:43;6.60;;;4.80;;
16832;SDS011;8533;48.426;10.868;2022-11-13T10:54:23;8.00;;;4.93;;
16832;SDS011;8533;48.426;10.868;2022-11-13T10:56:55;9.20;;;5.70;;
16832;SDS011;8533;48.426;10.868;2022-11-13T10:59:38;7.13;;;5.07;;
16832;SDS011;8533;48.426;10.868;2022-11-13T11:07:14;9.00;;;5.50;;
16832;SDS011;8533;48.426;10.868;2022-11-13T11:12:21;9.67;;;5.37;;
16832;SDS011;8533;48.426;10.868;2022-11-13T11:14:53;12.20;;;6.90;;
16832;SDS011;8533;48.426;10.868;2022-11-13T11:20:04;8.53;;;5.73;;
16832;SDS011;8533;48.426;10.868;2022-11-13T11:22:33;8.80;;;5.43;;
16832;SDS011;8533;48.426;10.868;2022-11-13T11:27:37;7.90;;;4.77;;
16832;SDS011;8533;48.426;10.868;2022-11-13T11:30:22;8.25;;;4.80;;
16832;SDS011;8533;48.426;10.868;2022-11-13T11:35:37;7.30;;;4.30;;
16832;SDS011;8533;48.426;10.868;2022-11-13T11:41:01;7.93;;;4.73;;
16832;SDS011;8533;48.426;10.868;2022-11-13T11:46:26;8.87;;;4.73;;
16832;SDS011;8533;48.426;10.868;2022-11-13T11:48:57;7.90;;;5.00;;
16832;SDS011;8533;48.426;10.868;2022-11-13T11:54:16;10.93;;;5.63;;
16832;SDS011;8533;48.426;10.868;2022-11-13T12:07:17;8.90;;;5.43;;
16832;SDS011;8533;48.426;10.868;2022-11-13T12:10:05;9.10;;;4.80;;
16832;SDS011;8533;48.426;10.868;2022-11-13T12:18:09;7.47;;;5.07;;
16832;SDS011;8533;48.426;10.868;2022-11-13T12:25:50;7.20;;;4.93;;
16832;SDS011;8533;48.426;10.868;2022-11-13T12:41:46;9.50;;;4.57;;
16832;SDS011;8533;48.426;10.868;2022-11-13T12:46:50;10.30;;;4.33;;
16832;SDS011;8533;48.426;10.868;2022-11-13T12:52:04;5.67;;;4.03;;
16832;SDS011;8533;48.426;10.868;2022-11-13T12:54:25;7.33;;;4.50;;
16832;SDS011;8533;48.426;10.868;2022-11-13T12:59:32;10.53;;;4.30;;
16832;SDS011;8533;48.426;10.868;2022-11-13T13:02:08;7.73;;;4.60;;
16832;SDS011;8533;48.426;10.868;2022-11-13T13:10:35;6.47;;;3.83;;
16832;SDS011;8533;48.426;10.868;2022-11-13T13:16:04;6.13;;;4.33;;
16832;SDS011;8533;48.426;10.868;2022-11-13T13:18:34;6.33;;;4.17;;
16832;SDS011;8533;48.426;10.868;2022-11-13T13:23:41;5.77;;;3.77;;
16832;SDS011;8533;48.426;10.868;2022-11-13T13:26:24;5.50;;;3.50;;
16832;SDS011;8533;48.426;10.868;2022-11-13T13:31:42;7.30;;;4.33;;
16832;SDS011;8533;48.426;10.868;2022-11-13T13:37:04;8.20;;;5.10;;
16832;SDS011;8533;48.426;10.868;2022-11-13T13:42:25;6.70;;;4.20;;
16832;SDS011;8533;48.426;10.868;2022-11-13T13:50:14;5.87;;;4.03;;
16832;SDS011;8533;48.426;10.868;2022-11-13T13:52:43;6.27;;;4.00;;
16832;SDS011;8533;48.426;10.868;2022-11-13T13:55:21;4.97;;;3.63;;
16832;SDS011;8533;48.426;10.868;2022-11-13T13:57:45;5.57;;;3.50;;
16832;SDS011;8533;48.426;10.868;2022-11-13T14:00:14;5.97;;;3.80;;
16832;SDS011;8533;48.426;10.868;2022-11-13T14:02:50;7.60;;;4.63;;
16832;SDS011;8533;48.426;10.868;2022-11-13T14:05:27;4.90;;;3.60;;
16832;SDS011;8533;48.426;10.868;2022-11-13T14:07:57;6.60;;;4.10;;
16832;SDS011;8533;48.426;10.868;2022-11-13T14:10:27;7.23;;;4.10;;
16832;SDS011;8533;48.426;10.868;2022-11-13T14:12:55;6.33;;;4.10;;
16832;SDS011;8533;48.426;10.868;2022-11-13T14:15:30;7.70;;;4.43;;
16832;SDS011;8533;48.426;10.868;2022-11-13T14:20:39;10.03;;;4.97;;
16832;SDS011;8533;48.426;10.868;2022-11-13T14:23:26;6.97;;;5.13;;
16832;SDS011;8533;48.426;10.868;2022-11-13T14:28:27;6.53;;;4.57;;
16832;SDS011;8533;48.426;10.868;2022-11-13T14:33:35;7.10;;;4.33;;
16832;SDS011;8533;48.426;10.868;2022-11-13T14:38:33;8.20;;;5.20;;
16832;SDS011;8533;48.426;10.868;2022-11-13T14:41:02;8.47;;;5.87;;
16832;SDS011;8533;48.426;10.868;2022-11-13T14:43:31;6.47;;;4.50;;
16832;SDS011;8533;48.426;10.868;2022-11-13T14:46:00;5.33;;;4.00;;
16832;SDS011;8533;48.426;10.868;2022-11-13T14:48:35;6.73;;;4.60;;
16832;SDS011;8533;48.426;10.868;2022-11-13T14:51:03;7.17;;;4.73;;
16832;SDS011;8533;48.426;10.868;2022-11-13T14:53:33;8.10;;;4.33;;
16832;SDS011;8533;48.426;10.868;2022-11-13T14:56:08;7.70;;;5.17;;
16832;SDS011;8533;48.426;10.868;2022-11-13T14:58:36;7.90;;;5.07;;
16832;SDS011;8533;48.426;10.868;2022-11-13T15:01:12;10.13;;;5.67;;
16832;SDS011;8533;48.426;10.868;2022-11-13T15:03:42;11.73;;;6.80;;
16832;SDS011;8533;48.426;10.868;2022-11-13T15:06:14;8.10;;;4.97;;
16832;SDS011;8533;48.426;10.868;2022-11-13T15:11:14;8.37;;;5.40;;
16832;SDS011;8533;48.426;10.868;2022-11-13T15:13:43;8.80;;;5.43;;
16832;SDS011;8533;48.426;10.868;2022-11-13T15:21:17;9.80;;;5.63;;
16832;SDS011;8533;48.426;10.868;2022-11-13T15:23:45;11.00;;;6.47;;
16832;SDS011;8533;48.426;10.868;2022-11-13T15:26:12;16.53;;;7.87;;
16832;SDS011;8533;48.426;10.868;2022-11-13T15:28:40;14.23;;;8.43;;
16832;SDS011;8533;48.426;10.868;2022-11-13T15:31:41;13.17;;;8.37;;
16832;SDS011;8533;48.426;10.868;2022-11-13T15:36:13;18.00;;;9.13;;
16832;SDS011;8533;48.426;10.868;2022-11-13T15:38:41;19.13;;;11.10;;
16832;SDS011;8533;48.426;10.868;2022-11-13T15:41:12;18.50;;;11.53;;
16832;SDS011;8533;48.426;10.868;2022-11-13T15:43:42;21.00;;;11.33;;
16832;SDS011;8533;48.426;10.868;2022-11-13T15:46:13;20.03;;;11.37;;
16832;SDS011;8533;48.426;10.868;2022-11-13T15:48:42;17.43;;;10.73;;
16832;SDS011;8533;48.426;10.868;2022-11-13T15:51:15;20.43;;;12.10;;
16832;SDS011;8533;48.426;10.868;2022-11-13T15:53:44;20.70;;;12.53;;
16832;SDS011;8533;48.426;10.868;2022-11-13T15:56:15;21.10;;;12.47;;
16832;SDS011;8533;48.426;10.868;2022-11-13T15:58:43;31.43;;;16.27;;
16832;SDS011;8533;48.426;10.868;2022-11-13T16:01:14;30.87;;;15.30;;
16832;SDS011;8533;48.426;10.868;2022-11-13T16:03:42;25.47;;;14.33;;
16832;SDS011;8533;48.426;10.868;2022-11-13T16:06:10;28.37;;;13.83;;
16832;SDS011;8533;48.426;10.868;2022-11-13T16:08:40;23.87;;;13.67;;
16832;SDS011;8533;48.426;10.868;2022-11-13T16:11:11;17.30;;;10.37;;
16832;SDS011;8533;48.426;10.868;2022-11-13T16:21:16;17.53;;;10.47;;
16832;SDS011;8533;48.426;10.868;2022-11-13T16:23:45;14.97;;;8.70;;
16832;SDS011;8533;48.426;10.868;2022-11-13T16:26:20;16.83;;;10.10;;
16832;SDS011;8533;48.426;10.868;2022-11-13T16:31:19;15.93;;;9.40;;
16832;SDS011;8533;48.426;10.868;2022-11-13T16:33:47;16.23;;;9.23;;
16832;SDS011;8533;48.426;10.868;2022-11-13T16:36:16;17.80;;;9.93;;
16832;SDS011;8533;48.426;10.868;2022-11-13T16:38:46;18.73;;;10.47;;
16832;SDS011;8533;48.426;10.868;2022-11-13T16:41:14;15.87;;;9.40;;
16832;SDS011;8533;48.426;10.868;2022-11-13T16:43:42;18.00;;;9.73;;
16832;SDS011;8533;48.426;10.868;2022-11-13T16:46:20;18.37;;;10.67;;
16832;SDS011;8533;48.426;10.868;2022-11-13T16:51:13;24.87;;;13.80;;
16832;SDS011;8533;48.426;10.868;2022-11-13T16:53:41;15.50;;;9.50;;
16832;SDS011;8533;48.426;10.868;2022-11-13T16:56:10;20.07;;;10.80;;
16832;SDS011;8533;48.426;10.868;2022-11-13T16:58:40;17.77;;;10.13;;
16832;SDS011;8533;48.426;10.868;2022-11-13T17:01:14;15.57;;;9.03;;
16832;SDS011;8533;48.426;10.868;2022-11-13T17:06:24;21.60;;;11.27;;
16832;SDS011;8533;48.426;10.868;2022-11-13T17:08:54;16.80;;;10.50;;
16832;SDS011;8533;48.426;10.868;2022-11-13T17:11:24;17.97;;;10.27;;
16832;SDS011;8533;48.426;10.868;2022-11-13T17:13:54;16.23;;;10.07;;
16832;SDS011;8533;48.426;10.868;2022-11-13T17:16:23;18.30;;;10.53;;
16832;SDS011;8533;48.426;10.868;2022-11-13T17:18:52;20.23;;;10.80;;
16832;SDS011;8533;48.426;10.868;2022-11-13T17:21:26;19.53;;;10.40;;
16832;SDS011;8533;48.426;10.868;2022-11-13T17:23:55;17.70;;;10.37;;
16832;SDS011;8533;48.426;10.868;2022-11-13T17:26:23;19.10;;;10.50;;